createdAt,value
2022-11-28T00:00:46.236Z,99064.40
2022-11-28T00:07:29.079Z,99053.45
2022-11-28T00:14:13.452Z,99057.75
2022-11-28T00:20:56.390Z,99056.05
2022-11-28T00:27:39.844Z,99044.59
2022-11-28T00:34:23.191Z,99047.82
2022-11-28T00:41:06.705Z,99040.91
2022-11-28T00:47:49.789Z,99037.25
2022-11-28T00:54:32.798Z,99030.73
2022-11-28T01:01:15.654Z,99015.69
2022-11-28T01:07:58.160Z,99004.30
2022-11-28T01:14:41.606Z,99007.98
2022-11-28T01:21:13.476Z,98996.34
2022-11-28T01:27:56.501Z,98998.05
2022-11-28T01:34:39.610Z,98990.55
2022-11-28T01:41:25.574Z,98979.24
2022-11-28T01:48:08.866Z,98964.34
2022-11-28T01:54:52.023Z,98950.09
2022-11-28T02:01:35.079Z,98936.68
2022-11-28T02:08:18.533Z,98930.77
2022-11-28T02:15:04.347Z,98924.48
2022-11-28T02:21:56.544Z,98938.90
2022-11-28T02:28:42.257Z,98926.48
2022-11-28T02:35:38.380Z,98918.79
2022-11-28T02:42:40.945Z,98922.36
2022-11-28T02:49:30.682Z,98914.73
2022-11-28T02:56:14.217Z,98914.60
2022-11-28T03:02:37.966Z,98901.84
2022-11-28T03:09:18.621Z,98900.89
2022-11-28T03:16:02.043Z,98907.48
2022-11-28T03:22:48.195Z,98897.66
2022-11-28T03:28:54.444Z,98890.42
2022-11-28T03:35:40.750Z,98885.23
2022-11-28T03:42:36.417Z,98883.20
2022-11-28T03:49:25.636Z,98872.22
2022-11-28T03:56:21.234Z,98874.47
2022-11-28T04:03:22.352Z,98874.85
2022-11-28T04:10:05.459Z,98870.46
2022-11-28T04:16:53.947Z,98866.11
2022-11-28T04:23:27.266Z,98866.69
2022-11-28T04:30:10.566Z,98864.95
2022-11-28T04:36:53.936Z,98864.66
2022-11-28T04:43:43.925Z,98873.64
2022-11-28T04:50:26.379Z,98864.95
2022-11-28T04:57:09.687Z,98864.86
2022-11-28T05:04:00.064Z,98866.66
2022-11-28T05:10:42.706Z,98873.58
2022-11-28T05:17:06.684Z,98870.17
2022-11-28T05:23:49.355Z,98870.01
2022-11-28T05:30:32.710Z,98861.84
2022-11-28T05:37:15.277Z,98868.96
2022-11-28T05:43:58.503Z,98865.45
2022-11-28T05:50:28.816Z,98864.58
2022-11-28T05:57:14.118Z,98861.86
2022-11-28T06:03:57.900Z,98854.36
2022-11-28T06:10:40.857Z,98855.92
2022-11-28T06:17:24.237Z,98857.36
2022-11-28T06:24:07.321Z,98854.65
2022-11-28T06:30:28.689Z,98852.36
2022-11-28T06:36:03.430Z,98852.92
2022-11-28T06:42:26.727Z,98853.46
2022-11-28T06:47:52.411Z,98855.37
2022-11-28T06:54:16.480Z,98854.23
2022-11-28T07:01:01.449Z,98850.31
2022-11-28T07:07:53.836Z,98848.99
2022-11-28T07:14:38.060Z,98845.02
2022-11-28T07:21:21.657Z,98843.91
2022-11-28T07:28:05.969Z,98837.69
2022-11-28T07:34:50.245Z,98838.73
2022-11-28T07:41:33.412Z,98829.66
2022-11-28T07:48:16.369Z,98827.18
2022-11-28T07:54:59.748Z,98821.12
2022-11-28T08:01:33.495Z,98817.77
2022-11-28T08:07:56.473Z,98817.69
2022-11-28T08:14:39.323Z,98807.08
2022-11-28T08:21:02.015Z,98801.84
2022-11-28T08:26:30.946Z,98805.05
2022-11-28T08:31:54.681Z,98802.63
2022-11-28T08:37:21.933Z,98802.35
2022-11-28T08:43:44.476Z,98802.41
2022-11-28T08:50:07.528Z,98808.27
2022-11-28T08:55:49.123Z,98808.96
2022-11-28T09:02:19.021Z,98809.21
2022-11-28T09:08:22.478Z,98811.13
2022-11-28T09:15:07.579Z,98801.92
2022-11-28T09:21:56.111Z,98793.71
2022-11-28T09:27:47.713Z,98788.83
2022-11-28T09:33:31.817Z,98783.70
2022-11-28T09:39:17.763Z,98779.88
2022-11-28T09:45:00.777Z,98773.46
2022-11-28T09:50:37.830Z,98765.90
2022-11-28T09:56:14.998Z,98759.95
2022-11-28T10:02:16.100Z,98749.32
2022-11-28T10:20:40.913Z,98733.09
2022-11-28T10:27:21.277Z,98731.06
2022-11-28T10:34:23.632Z,98722.09
2022-11-28T10:41:11.449Z,98712.40
2022-11-28T10:47:57.172Z,98703.08
2022-11-28T10:54:44.389Z,98700.92
2022-11-28T11:01:28.721Z,98690.39
2022-11-28T11:08:12.032Z,98687.76
2022-11-28T11:15:01.355Z,98684.19
2022-11-28T11:21:13.721Z,98677.69
2022-11-28T11:27:48.172Z,98675.84
2022-11-28T11:34:02.765Z,98681.10
2022-11-28T11:40:11.490Z,98678.73
2022-11-28T11:46:56.971Z,98679.26
2022-11-28T11:53:43.176Z,98676.50
2022-11-28T12:00:35.247Z,98674.11
2022-11-28T12:07:18.458Z,98668.54
2022-11-28T12:14:01.598Z,98662.98
2022-11-28T12:20:00.857Z,98656.94
2022-11-28T12:25:45.938Z,98653.36
2022-11-28T12:32:15.064Z,98652.35
2022-11-28T12:38:25.931Z,98653.16
2022-11-28T12:44:17.861Z,98647.77
2022-11-28T12:49:56.794Z,98645.64
2022-11-28T12:55:47.892Z,98645.95
2022-11-28T13:01:23.878Z,98637.67
2022-11-28T13:07:21.756Z,98629.92
2022-11-28T13:13:00.887Z,98621.65
2022-11-28T13:18:47.823Z,98622.08
2022-11-28T13:24:53.032Z,98620.89
2022-11-28T13:30:37.869Z,98616.21
2022-11-28T13:49:13.841Z,98609.98
2022-11-28T13:54:47.403Z,98605.48
2022-11-28T14:00:41.798Z,98603.44
2022-11-28T14:06:17.853Z,98606.03
2022-11-28T14:12:11.816Z,98601.35
2022-11-28T14:17:54.906Z,98601.11
2022-11-28T14:24:21.154Z,98596.42
2022-11-28T14:30:20.985Z,98590.85
2022-11-28T14:36:46.895Z,98594.35
2022-11-28T14:48:40.977Z,98591.52
2022-11-28T14:55:15.063Z,98595.73
2022-11-28T15:01:38.459Z,98599.73
2022-11-28T15:08:19.920Z,98601.73
2022-11-28T15:15:11.528Z,98593.23
2022-11-28T15:21:53.922Z,98597.64
2022-11-28T15:28:17.148Z,98607.34
2022-11-28T15:35:00.406Z,98609.50
2022-11-28T15:41:43.051Z,98605.65
2022-11-28T15:48:26.203Z,98608.64
2022-11-28T15:55:18.537Z,98611.59
2022-11-28T16:02:04.754Z,98615.21
2022-11-28T16:08:48.289Z,98618.61
2022-11-28T16:15:18.362Z,98620.61
2022-11-28T16:22:00.849Z,98625.70
2022-11-28T16:28:20.035Z,98623.63
2022-11-28T16:35:03.263Z,98623.09
2022-11-28T16:41:25.541Z,98631.39
2022-11-28T16:47:52.685Z,98628.53
2022-11-28T16:54:37.980Z,98636.86
2022-11-28T17:01:21.377Z,98629.77
2022-11-28T17:08:09.387Z,98637.61
2022-11-28T17:14:57.823Z,98632.73
2022-11-28T17:21:42.543Z,98632.09
2022-11-28T17:28:37.704Z,98635.96
2022-11-28T17:35:05.198Z,98642.87
2022-11-28T17:41:07.194Z,98634.42
2022-11-28T17:55:18.020Z,98620.56
2022-11-28T18:02:02.472Z,98619.48
2022-11-28T18:07:55.431Z,98618.12
2022-11-28T18:14:22.429Z,98612.45
2022-11-28T18:20:35.069Z,98612.77
2022-11-28T18:26:35.011Z,98615.05
2022-11-28T18:33:01.300Z,98610.38
2022-11-28T18:39:44.803Z,98612.77
2022-11-28T18:46:29.349Z,98608.65
2022-11-28T18:52:54.630Z,98619.62
2022-11-28T18:58:39.554Z,98614.84
2022-11-28T19:04:59.071Z,98617.80
2022-11-28T19:11:07.719Z,98614.54
2022-11-28T19:16:56.419Z,98613.91
2022-11-28T19:23:00.331Z,98613.68
2022-11-28T19:29:11.728Z,98615.27
2022-11-28T19:35:37.718Z,98614.29
2022-11-28T19:41:36.087Z,98616.11
2022-11-28T19:48:19.789Z,98613.78
2022-11-28T19:55:02.248Z,98616.52
2022-11-28T20:01:47.083Z,98623.76
2022-11-28T20:08:30.326Z,98630.56
2022-11-28T20:14:56.263Z,98634.35
2022-11-28T20:21:03.567Z,98638.36
2022-11-28T20:26:36.028Z,98642.92
2022-11-28T20:32:20.095Z,98638.45
2022-11-28T20:38:57.900Z,98635.39
2022-11-28T20:45:48.591Z,98630.73
2022-11-28T20:51:55.976Z,98634.42
2022-11-28T20:58:04.008Z,98639.35
2022-11-28T21:04:42.066Z,98642.16
2022-11-28T21:10:07.011Z,98639.41
2022-11-28T21:15:33.279Z,98646.16
2022-11-28T21:20:58.252Z,98646.77
2022-11-28T21:26:30.098Z,98647.41
2022-11-28T21:32:59.020Z,98650.48
2022-11-28T21:39:47.755Z,98658.20
2022-11-28T21:45:46.088Z,98661.65
2022-11-28T21:51:25.130Z,98662.66
2022-11-28T21:56:57.138Z,98663.36
2022-11-28T22:03:06.891Z,98661.32
2022-11-28T22:08:48.073Z,98656.35
2022-11-28T22:14:27.932Z,98652.80
2022-11-28T22:20:11.777Z,98651.36
2022-11-28T22:26:35.875Z,98650.75
2022-11-28T22:33:18.065Z,98654.27
2022-11-28T22:39:44.025Z,98657.89
2022-11-28T22:46:05.804Z,98658.38
2022-11-28T22:51:54.413Z,98664.15
2022-11-28T22:57:57.966Z,98664.70
2022-11-28T23:04:25.098Z,98659.94
2022-11-28T23:10:47.618Z,98652.52
2022-11-28T23:16:53.089Z,98648.16
2022-11-28T23:22:25.028Z,98649.81
2022-11-28T23:28:28.695Z,98652.16
2022-11-28T23:35:07.266Z,98648.11
2022-11-28T23:40:30.463Z,98650.66
2022-11-28T23:46:36.445Z,98651.24
2022-11-28T23:52:01.115Z,98646.82
2022-11-28T23:57:44.892Z,98646.52
